White Heath, Illinois
Current Conditions -  °F | °C
As of 9:53 PM on Thursday 18 Dec 2014 (Local Time) from KCMI Reporting Station
Clear Clear  
Wind Chill: 19°   Ceiling: Unl
Heat Index: 25°   Visibility: 9mi
Dew Point: 20°   Wind: 5mph
Humidity: 81%   Direction: 350°N
Pressure: 30.28"   Gusts: NA
Location:  40.08°N, 88.51°W
Report Text: KCMI 190353Z 35004KT 9SM CLR M04/M07 A3028 RMK AO2 SLP262 T10391067
Loading
Personal Weather Stations






























Interactive Weather Map New forecast layout! Learn more

10-Day Weather Forecast

Advertisements
Track Severe Weather on mobile